sensor_id;sensor_type;location;lat;lon;timestamp;temperature;humidity
25949;DHT22;13961;51.178;4.448;2023-09-19T00:01:57;15.80;99.90
25949;DHT22;13961;51.178;4.448;2023-09-19T00:04:23;15.80;99.90
25949;DHT22;13961;51.178;4.448;2023-09-19T00:06:54;15.80;99.90
25949;DHT22;13961;51.178;4.448;2023-09-19T00:09:20;15.80;99.90
25949;DHT22;13961;51.178;4.448;2023-09-19T00:11:45;15.80;99.90
25949;DHT22;13961;51.178;4.448;2023-09-19T00:14:13;15.80;99.90
25949;DHT22;13961;51.178;4.448;2023-09-19T00:16:39;15.80;99.90
25949;DHT22;13961;51.178;4.448;2023-09-19T00:19:06;15.70;99.90
25949;DHT22;13961;51.178;4.448;2023-09-19T00:21:32;15.70;99.90
25949;DHT22;13961;51.178;4.448;2023-09-19T00:23:58;15.70;99.90
25949;DHT22;13961;51.178;4.448;2023-09-19T00:26:24;15.60;99.90
25949;DHT22;13961;51.178;4.448;2023-09-19T00:28:52;15.70;99.90
25949;DHT22;13961;51.178;4.448;2023-09-19T00:31:18;15.70;99.90
25949;DHT22;13961;51.178;4.448;2023-09-19T00:33:44;15.80;99.90
25949;DHT22;13961;51.178;4.448;2023-09-19T00:36:09;15.80;99.90
25949;DHT22;13961;51.178;4.448;2023-09-19T00:38:35;15.70;99.90
25949;DHT22;13961;51.178;4.448;2023-09-19T00:41:01;15.60;99.90
25949;DHT22;13961;51.178;4.448;2023-09-19T00:43:27;15.60;99.90
25949;DHT22;13961;51.178;4.448;2023-09-19T00:45:54;15.50;99.90
25949;DHT22;13961;51.178;4.448;2023-09-19T00:48:21;15.50;99.90
25949;DHT22;13961;51.178;4.448;2023-09-19T00:50:49;15.50;99.90
25949;DHT22;13961;51.178;4.448;2023-09-19T00:53:18;15.60;99.90
25949;DHT22;13961;51.178;4.448;2023-09-19T00:55:45;15.60;99.90
25949;DHT22;13961;51.178;4.448;2023-09-19T00:58:12;15.60;99.90
25949;DHT22;13961;51.178;4.448;2023-09-19T01:00:38;15.50;99.90
25949;DHT22;13961;51.178;4.448;2023-09-19T01:03:04;15.60;99.90
25949;DHT22;13961;51.178;4.448;2023-09-19T01:05:35;15.60;99.90
25949;DHT22;13961;51.178;4.448;2023-09-19T01:08:01;15.60;99.90
25949;DHT22;13961;51.178;4.448;2023-09-19T01:10:28;15.80;99.90
25949;DHT22;13961;51.178;4.448;2023-09-19T01:19:15;15.60;99.90
25949;DHT22;13961;51.178;4.448;2023-09-19T01:29:50;15.60;99.90
25949;DHT22;13961;51.178;4.448;2023-09-19T01:32:18;15.50;99.90
25949;DHT22;13961;51.178;4.448;2023-09-19T01:34:50;15.60;99.90
25949;DHT22;13961;51.178;4.448;2023-09-19T01:37:19;15.60;99.90
25949;DHT22;13961;51.178;4.448;2023-09-19T01:39:47;15.60;99.90
25949;DHT22;13961;51.178;4.448;2023-09-19T01:42:24;15.60;99.90
25949;DHT22;13961;51.178;4.448;2023-09-19T01:45:03;15.60;99.90
25949;DHT22;13961;51.178;4.448;2023-09-19T01:47:35;15.70;99.90
25949;DHT22;13961;51.178;4.448;2023-09-19T01:50:20;15.70;99.90
25949;DHT22;13961;51.178;4.448;2023-09-19T01:53:02;15.60;99.90
25949;DHT22;13961;51.178;4.448;2023-09-19T01:55:30;15.50;99.90
25949;DHT22;13961;51.178;4.448;2023-09-19T01:58:06;15.50;99.90
25949;DHT22;13961;51.178;4.448;2023-09-19T02:00:35;15.50;99.90
25949;DHT22;13961;51.178;4.448;2023-09-19T02:03:03;15.50;99.90
25949;DHT22;13961;51.178;4.448;2023-09-19T02:05:29;15.40;99.90
25949;DHT22;13961;51.178;4.448;2023-09-19T02:07:56;15.40;99.90
25949;DHT22;13961;51.178;4.448;2023-09-19T02:10:22;15.40;99.90
25949;DHT22;13961;51.178;4.448;2023-09-19T02:12:49;15.30;99.90
25949;DHT22;13961;51.178;4.448;2023-09-19T02:15:15;15.30;99.90
25949;DHT22;13961;51.178;4.448;2023-09-19T02:17:44;15.40;99.90
25949;DHT22;13961;51.178;4.448;2023-09-19T02:20:11;15.40;99.90
25949;DHT22;13961;51.178;4.448;2023-09-19T02:22:41;15.40;99.90
25949;DHT22;13961;51.178;4.448;2023-09-19T02:25:07;15.30;99.90
25949;DHT22;13961;51.178;4.448;2023-09-19T02:27:34;15.30;99.90
25949;DHT22;13961;51.178;4.448;2023-09-19T02:29:59;15.40;99.90
25949;DHT22;13961;51.178;4.448;2023-09-19T02:32:29;15.40;99.90
25949;DHT22;13961;51.178;4.448;2023-09-19T02:34:57;15.20;99.90
25949;DHT22;13961;51.178;4.448;2023-09-19T02:37:24;15.10;99.90
25949;DHT22;13961;51.178;4.448;2023-09-19T02:39:50;15.20;99.90
25949;DHT22;13961;51.178;4.448;2023-09-19T02:42:15;15.30;99.90
25949;DHT22;13961;51.178;4.448;2023-09-19T02:44:41;15.40;99.90
25949;DHT22;13961;51.178;4.448;2023-09-19T02:47:07;15.50;99.90
25949;DHT22;13961;51.178;4.448;2023-09-19T02:49:32;15.40;99.90
25949;DHT22;13961;51.178;4.448;2023-09-19T02:51:58;15.50;99.90
25949;DHT22;13961;51.178;4.448;2023-09-19T02:54:25;15.50;99.90
25949;DHT22;13961;51.178;4.448;2023-09-19T02:56:51;15.40;99.90
25949;DHT22;13961;51.178;4.448;2023-09-19T02:59:19;15.30;99.90
25949;DHT22;13961;51.178;4.448;2023-09-19T03:01:45;15.30;99.90
25949;DHT22;13961;51.178;4.448;2023-09-19T03:04:13;15.30;99.90
25949;DHT22;13961;51.178;4.448;2023-09-19T03:06:45;15.40;99.90
25949;DHT22;13961;51.178;4.448;2023-09-19T03:09:11;15.30;99.90
25949;DHT22;13961;51.178;4.448;2023-09-19T03:11:37;15.30;99.90
25949;DHT22;13961;51.178;4.448;2023-09-19T03:14:02;15.40;99.90
25949;DHT22;13961;51.178;4.448;2023-09-19T03:16:29;15.40;99.90
25949;DHT22;13961;51.178;4.448;2023-09-19T03:18:55;15.50;99.90
25949;DHT22;13961;51.178;4.448;2023-09-19T03:21:20;15.50;99.90
25949;DHT22;13961;51.178;4.448;2023-09-19T03:23:47;15.70;99.90
25949;DHT22;13961;51.178;4.448;2023-09-19T03:26:13;15.60;99.90
25949;DHT22;13961;51.178;4.448;2023-09-19T03:28:39;15.70;99.90
25949;DHT22;13961;51.178;4.448;2023-09-19T03:31:06;15.60;99.90
25949;DHT22;13961;51.178;4.448;2023-09-19T03:33:33;15.60;99.90
25949;DHT22;13961;51.178;4.448;2023-09-19T03:36:00;15.60;99.90
25949;DHT22;13961;51.178;4.448;2023-09-19T03:38:26;15.60;99.90
25949;DHT22;13961;51.178;4.448;2023-09-19T03:40:54;15.60;99.90
25949;DHT22;13961;51.178;4.448;2023-09-19T03:43:19;15.70;99.90
25949;DHT22;13961;51.178;4.448;2023-09-19T03:45:45;15.80;99.90
25949;DHT22;13961;51.178;4.448;2023-09-19T03:48:12;15.70;99.90
25949;DHT22;13961;51.178;4.448;2023-09-19T03:50:38;15.70;99.90
25949;DHT22;13961;51.178;4.448;2023-09-19T03:53:04;15.70;99.90
25949;DHT22;13961;51.178;4.448;2023-09-19T03:55:32;15.60;99.90
25949;DHT22;13961;51.178;4.448;2023-09-19T03:57:58;15.50;99.90
25949;DHT22;13961;51.178;4.448;2023-09-19T04:00:23;15.50;99.90
25949;DHT22;13961;51.178;4.448;2023-09-19T04:02:52;15.50;99.90
25949;DHT22;13961;51.178;4.448;2023-09-19T04:05:18;15.50;99.90
25949;DHT22;13961;51.178;4.448;2023-09-19T04:07:44;15.50;99.90
25949;DHT22;13961;51.178;4.448;2023-09-19T04:10:11;15.50;99.90
25949;DHT22;13961;51.178;4.448;2023-09-19T04:12:37;15.50;99.90
25949;DHT22;13961;51.178;4.448;2023-09-19T04:15:05;15.60;99.90
25949;DHT22;13961;51.178;4.448;2023-09-19T04:17:30;15.40;99.90
25949;DHT22;13961;51.178;4.448;2023-09-19T04:19:59;15.50;99.90
25949;DHT22;13961;51.178;4.448;2023-09-19T04:22:24;15.40;99.90
25949;DHT22;13961;51.178;4.448;2023-09-19T04:24:50;15.40;99.90
25949;DHT22;13961;51.178;4.448;2023-09-19T04:27:16;15.40;99.90
25949;DHT22;13961;51.178;4.448;2023-09-19T04:29:42;15.30;99.90
25949;DHT22;13961;51.178;4.448;2023-09-19T04:32:08;15.20;99.90
25949;DHT22;13961;51.178;4.448;2023-09-19T04:34:35;15.10;99.90
25949;DHT22;13961;51.178;4.448;2023-09-19T04:37:01;15.20;99.90
25949;DHT22;13961;51.178;4.448;2023-09-19T04:39:27;15.20;99.90
25949;DHT22;13961;51.178;4.448;2023-09-19T04:41:53;15.30;99.90
25949;DHT22;13961;51.178;4.448;2023-09-19T04:44:20;15.20;99.90
25949;DHT22;13961;51.178;4.448;2023-09-19T04:46:46;15.10;99.90
25949;DHT22;13961;51.178;4.448;2023-09-19T04:49:12;14.90;99.90
25949;DHT22;13961;51.178;4.448;2023-09-19T04:51:38;14.90;99.90
25949;DHT22;13961;51.178;4.448;2023-09-19T04:54:05;14.90;99.90
25949;DHT22;13961;51.178;4.448;2023-09-19T04:56:31;15.00;99.90
25949;DHT22;13961;51.178;4.448;2023-09-19T04:59:00;15.00;99.90
25949;DHT22;13961;51.178;4.448;2023-09-19T05:01:26;14.90;99.90
25949;DHT22;13961;51.178;4.448;2023-09-19T05:03:53;15.00;99.90
25949;DHT22;13961;51.178;4.448;2023-09-19T05:06:22;15.00;99.90
25949;DHT22;13961;51.178;4.448;2023-09-19T05:08:49;14.90;99.90
25949;DHT22;13961;51.178;4.448;2023-09-19T05:11:21;14.90;99.90
25949;DHT22;13961;51.178;4.448;2023-09-19T05:13:51;15.00;99.90
25949;DHT22;13961;51.178;4.448;2023-09-19T05:16:18;15.00;99.90
25949;DHT22;13961;51.178;4.448;2023-09-19T05:18:43;14.90;99.90
25949;DHT22;13961;51.178;4.448;2023-09-19T05:21:09;14.60;99.90
25949;DHT22;13961;51.178;4.448;2023-09-19T05:23:34;14.60;99.90
25949;DHT22;13961;51.178;4.448;2023-09-19T05:26:00;14.70;99.90
25949;DHT22;13961;51.178;4.448;2023-09-19T05:28:26;14.60;99.90
25949;DHT22;13961;51.178;4.448;2023-09-19T05:30:53;14.60;99.90
25949;DHT22;13961;51.178;4.448;2023-09-19T05:33:19;14.60;99.90
25949;DHT22;13961;51.178;4.448;2023-09-19T05:35:45;14.60;99.90
25949;DHT22;13961;51.178;4.448;2023-09-19T05:38:13;14.60;99.90
25949;DHT22;13961;51.178;4.448;2023-09-19T05:40:40;14.70;99.90
25949;DHT22;13961;51.178;4.448;2023-09-19T05:43:10;14.80;99.90
25949;DHT22;13961;51.178;4.448;2023-09-19T05:45:36;14.80;99.90
25949;DHT22;13961;51.178;4.448;2023-09-19T05:48:13;14.80;99.90
25949;DHT22;13961;51.178;4.448;2023-09-19T05:50:42;14.90;99.90
25949;DHT22;13961;51.178;4.448;2023-09-19T05:53:08;14.90;99.90
25949;DHT22;13961;51.178;4.448;2023-09-19T05:55:35;14.80;99.90
25949;DHT22;13961;51.178;4.448;2023-09-19T05:58:01;15.00;99.90
25949;DHT22;13961;51.178;4.448;2023-09-19T06:00:29;14.80;99.90
25949;DHT22;13961;51.178;4.448;2023-09-19T06:02:58;14.90;99.90
25949;DHT22;13961;51.178;4.448;2023-09-19T06:05:25;14.90;99.90
25949;DHT22;13961;51.178;4.448;2023-09-19T06:07:52;14.90;99.90
25949;DHT22;13961;51.178;4.448;2023-09-19T06:10:19;15.00;99.90
25949;DHT22;13961;51.178;4.448;2023-09-19T06:12:46;15.00;99.90
25949;DHT22;13961;51.178;4.448;2023-09-19T06:15:16;15.20;99.90
25949;DHT22;13961;51.178;4.448;2023-09-19T06:20:14;15.50;99.90
25949;DHT22;13961;51.178;4.448;2023-09-19T06:22:44;15.50;99.90
25949;DHT22;13961;51.178;4.448;2023-09-19T06:25:11;15.50;99.90
25949;DHT22;13961;51.178;4.448;2023-09-19T06:27:40;15.50;99.90
25949;DHT22;13961;51.178;4.448;2023-09-19T06:30:08;15.60;99.90
25949;DHT22;13961;51.178;4.448;2023-09-19T06:32:34;15.80;99.90
25949;DHT22;13961;51.178;4.448;2023-09-19T06:35:00;15.90;99.90
25949;DHT22;13961;51.178;4.448;2023-09-19T06:37:30;16.10;99.90
25949;DHT22;13961;51.178;4.448;2023-09-19T06:39:55;16.10;99.90
25949;DHT22;13961;51.178;4.448;2023-09-19T06:42:22;16.00;99.90
25949;DHT22;13961;51.178;4.448;2023-09-19T06:44:49;16.00;99.90
25949;DHT22;13961;51.178;4.448;2023-09-19T06:47:14;16.10;99.90
25949;DHT22;13961;51.178;4.448;2023-09-19T06:49:41;16.30;99.90
25949;DHT22;13961;51.178;4.448;2023-09-19T06:52:09;16.30;99.90
25949;DHT22;13961;51.178;4.448;2023-09-19T06:54:35;16.30;99.90
25949;DHT22;13961;51.178;4.448;2023-09-19T06:57:01;16.40;99.90
25949;DHT22;13961;51.178;4.448;2023-09-19T06:59:27;16.50;99.90
25949;DHT22;13961;51.178;4.448;2023-09-19T07:01:53;16.50;99.90
25949;DHT22;13961;51.178;4.448;2023-09-19T07:04:19;16.40;99.90
25949;DHT22;13961;51.178;4.448;2023-09-19T07:06:49;16.50;99.90
25949;DHT22;13961;51.178;4.448;2023-09-19T07:09:18;16.40;99.90
25949;DHT22;13961;51.178;4.448;2023-09-19T07:11:47;16.50;99.90
25949;DHT22;13961;51.178;4.448;2023-09-19T07:14:13;16.40;99.90
25949;DHT22;13961;51.178;4.448;2023-09-19T07:16:39;16.50;99.90
25949;DHT22;13961;51.178;4.448;2023-09-19T07:19:08;16.50;99.90
25949;DHT22;13961;51.178;4.448;2023-09-19T07:21:33;16.80;99.90
25949;DHT22;13961;51.178;4.448;2023-09-19T07:24:01;17.20;99.90
25949;DHT22;13961;51.178;4.448;2023-09-19T07:26:28;17.50;99.90
25949;DHT22;13961;51.178;4.448;2023-09-19T07:28:54;17.60;99.90
25949;DHT22;13961;51.178;4.448;2023-09-19T07:31:21;17.80;99.90
25949;DHT22;13961;51.178;4.448;2023-09-19T07:33:48;17.60;99.90
25949;DHT22;13961;51.178;4.448;2023-09-19T07:36:14;17.50;99.90
25949;DHT22;13961;51.178;4.448;2023-09-19T07:38:41;17.40;99.90
25949;DHT22;13961;51.178;4.448;2023-09-19T07:41:08;17.40;99.90
25949;DHT22;13961;51.178;4.448;2023-09-19T07:43:37;17.70;99.90
25949;DHT22;13961;51.178;4.448;2023-09-19T07:46:07;17.90;99.90
25949;DHT22;13961;51.178;4.448;2023-09-19T07:48:37;18.20;99.90
25949;DHT22;13961;51.178;4.448;2023-09-19T07:51:05;18.20;99.90
25949;DHT22;13961;51.178;4.448;2023-09-19T07:53:32;18.30;99.90
25949;DHT22;13961;51.178;4.448;2023-09-19T07:56:08;18.30;99.90
25949;DHT22;13961;51.178;4.448;2023-09-19T07:58:34;18.50;99.90
25949;DHT22;13961;51.178;4.448;2023-09-19T08:01:05;18.90;99.90
25949;DHT22;13961;51.178;4.448;2023-09-19T08:03:32;19.30;99.90
25949;DHT22;13961;51.178;4.448;2023-09-19T08:05:58;19.30;99.90
25949;DHT22;13961;51.178;4.448;2023-09-19T08:08:23;19.40;99.90
25949;DHT22;13961;51.178;4.448;2023-09-19T08:10:54;19.60;99.90
25949;DHT22;13961;51.178;4.448;2023-09-19T08:13:24;20.10;99.90
25949;DHT22;13961;51.178;4.448;2023-09-19T08:15:50;19.80;99.90
25949;DHT22;13961;51.178;4.448;2023-09-19T08:18:17;19.80;99.90
25949;DHT22;13961;51.178;4.448;2023-09-19T08:20:43;20.00;99.90
25949;DHT22;13961;51.178;4.448;2023-09-19T08:23:11;20.00;99.90
25949;DHT22;13961;51.178;4.448;2023-09-19T08:25:37;20.20;99.90
25949;DHT22;13961;51.178;4.448;2023-09-19T08:28:04;20.50;99.90
25949;DHT22;13961;51.178;4.448;2023-09-19T08:30:33;20.70;99.90
25949;DHT22;13961;51.178;4.448;2023-09-19T08:33:00;20.70;99.90
25949;DHT22;13961;51.178;4.448;2023-09-19T08:35:27;20.00;99.90
25949;DHT22;13961;51.178;4.448;2023-09-19T08:37:52;20.30;99.90
25949;DHT22;13961;51.178;4.448;2023-09-19T08:40:18;20.50;99.90
25949;DHT22;13961;51.178;4.448;2023-09-19T08:42:54;20.40;99.90
25949;DHT22;13961;51.178;4.448;2023-09-19T08:45:21;20.20;99.90
25949;DHT22;13961;51.178;4.448;2023-09-19T08:48:09;19.80;99.90
25949;DHT22;13961;51.178;4.448;2023-09-19T08:50:47;19.40;99.90
25949;DHT22;13961;51.178;4.448;2023-09-19T08:53:19;19.70;99.90
25949;DHT22;13961;51.178;4.448;2023-09-19T08:55:49;20.10;99.90
25949;DHT22;13961;51.178;4.448;2023-09-19T08:58:20;19.80;99.90
25949;DHT22;13961;51.178;4.448;2023-09-19T09:00:48;19.50;99.90
25949;DHT22;13961;51.178;4.448;2023-09-19T09:03:16;19.40;99.90
25949;DHT22;13961;51.178;4.448;2023-09-19T09:05:46;19.30;99.90
25949;DHT22;13961;51.178;4.448;2023-09-19T09:08:13;19.30;99.90
25949;DHT22;13961;51.178;4.448;2023-09-19T09:10:39;19.20;99.90
25949;DHT22;13961;51.178;4.448;2023-09-19T09:13:06;19.20;99.90
25949;DHT22;13961;51.178;4.448;2023-09-19T09:15:35;19.00;99.90
25949;DHT22;13961;51.178;4.448;2023-09-19T09:18:02;19.10;99.90
25949;DHT22;13961;51.178;4.448;2023-09-19T09:20:30;19.40;99.90
25949;DHT22;13961;51.178;4.448;2023-09-19T09:22:56;19.40;99.90
25949;DHT22;13961;51.178;4.448;2023-09-19T09:25:55;19.30;99.90
25949;DHT22;13961;51.178;4.448;2023-09-19T09:28:27;19.10;99.90
25949;DHT22;13961;51.178;4.448;2023-09-19T09:30:57;18.80;99.90
25949;DHT22;13961;51.178;4.448;2023-09-19T09:33:35;18.90;99.90
25949;DHT22;13961;51.178;4.448;2023-09-19T09:36:02;19.20;99.90
25949;DHT22;13961;51.178;4.448;2023-09-19T09:38:47;19.40;99.90
25949;DHT22;13961;51.178;4.448;2023-09-19T09:41:15;19.40;99.90
25949;DHT22;13961;51.178;4.448;2023-09-19T09:43:52;19.20;99.90
25949;DHT22;13961;51.178;4.448;2023-09-19T09:46:20;19.20;99.90
25949;DHT22;13961;51.178;4.448;2023-09-19T09:49:07;19.20;99.90
25949;DHT22;13961;51.178;4.448;2023-09-19T09:52:03;19.30;99.90
25949;DHT22;13961;51.178;4.448;2023-09-19T09:54:34;19.40;99.90
25949;DHT22;13961;51.178;4.448;2023-09-19T09:57:04;19.70;99.90
25949;DHT22;13961;51.178;4.448;2023-09-19T09:59:49;19.80;99.90
25949;DHT22;13961;51.178;4.448;2023-09-19T10:02:29;19.70;99.90
25949;DHT22;13961;51.178;4.448;2023-09-19T10:04:57;19.60;99.90
25949;DHT22;13961;51.178;4.448;2023-09-19T10:07:41;19.60;99.90
25949;DHT22;13961;51.178;4.448;2023-09-19T10:10:15;19.80;99.90
25949;DHT22;13961;51.178;4.448;2023-09-19T10:12:48;19.70;99.90
25949;DHT22;13961;51.178;4.448;2023-09-19T10:15:16;19.90;99.90
25949;DHT22;13961;51.178;4.448;2023-09-19T10:17:44;20.10;99.90
25949;DHT22;13961;51.178;4.448;2023-09-19T10:20:16;20.10;99.90
25949;DHT22;13961;51.178;4.448;2023-09-19T10:23:07;20.10;99.90
25949;DHT22;13961;51.178;4.448;2023-09-19T10:25:37;20.40;99.90
25949;DHT22;13961;51.178;4.448;2023-09-19T10:28:06;20.30;99.90
25949;DHT22;13961;51.178;4.448;2023-09-19T10:30:38;20.30;99.90
25949;DHT22;13961;51.178;4.448;2023-09-19T10:33:09;20.30;99.90
25949;DHT22;13961;51.178;4.448;2023-09-19T10:35:38;20.40;99.90
25949;DHT22;13961;51.178;4.448;2023-09-19T10:38:10;20.50;99.90
25949;DHT22;13961;51.178;4.448;2023-09-19T10:40:37;20.50;99.90
25949;DHT22;13961;51.178;4.448;2023-09-19T10:43:06;20.60;99.90
25949;DHT22;13961;51.178;4.448;2023-09-19T10:45:34;20.80;99.90
25949;DHT22;13961;51.178;4.448;2023-09-19T10:48:01;20.90;99.90
25949;DHT22;13961;51.178;4.448;2023-09-19T10:50:45;20.90;99.90
25949;DHT22;13961;51.178;4.448;2023-09-19T10:53:12;20.90;99.90
25949;DHT22;13961;51.178;4.448;2023-09-19T10:55:39;21.00;99.90
25949;DHT22;13961;51.178;4.448;2023-09-19T10:58:06;20.90;99.90
25949;DHT22;13961;51.178;4.448;2023-09-19T11:00:56;21.10;99.90
25949;DHT22;13961;51.178;4.448;2023-09-19T11:03:23;20.90;99.90
25949;DHT22;13961;51.178;4.448;2023-09-19T11:06:18;20.90;99.90
25949;DHT22;13961;51.178;4.448;2023-09-19T11:11:45;21.00;99.90
25949;DHT22;13961;51.178;4.448;2023-09-19T11:14:14;21.30;99.90
25949;DHT22;13961;51.178;4.448;2023-09-19T11:16:51;21.20;99.90
25949;DHT22;13961;51.178;4.448;2023-09-19T11:30:50;21.70;99.90
25949;DHT22;13961;51.178;4.448;2023-09-19T11:33:31;21.90;99.90
25949;DHT22;13961;51.178;4.448;2023-09-19T11:43:52;21.50;99.90
25949;DHT22;13961;51.178;4.448;2023-09-19T11:46:20;21.80;99.90
25949;DHT22;13961;51.178;4.448;2023-09-19T11:48:49;22.00;99.90
25949;DHT22;13961;51.178;4.448;2023-09-19T11:51:25;22.10;99.90
25949;DHT22;13961;51.178;4.448;2023-09-19T11:53:56;21.70;99.90
25949;DHT22;13961;51.178;4.448;2023-09-19T11:56:26;21.50;99.90
25949;DHT22;13961;51.178;4.448;2023-09-19T11:58:57;21.10;99.90
25949;DHT22;13961;51.178;4.448;2023-09-19T12:01:24;20.90;99.90
25949;DHT22;13961;51.178;4.448;2023-09-19T12:03:53;21.10;99.90
25949;DHT22;13961;51.178;4.448;2023-09-19T12:06:20;21.20;99.90
25949;DHT22;13961;51.178;4.448;2023-09-19T12:08:47;21.30;99.90
25949;DHT22;13961;51.178;4.448;2023-09-19T12:11:15;21.20;99.90
25949;DHT22;13961;51.178;4.448;2023-09-19T12:13:45;21.10;99.90
25949;DHT22;13961;51.178;4.448;2023-09-19T12:16:21;21.20;99.90
25949;DHT22;13961;51.178;4.448;2023-09-19T12:18:49;21.00;99.90
25949;DHT22;13961;51.178;4.448;2023-09-19T12:21:30;20.80;99.90
25949;DHT22;13961;51.178;4.448;2023-09-19T12:24:12;20.80;99.90
25949;DHT22;13961;51.178;4.448;2023-09-19T12:26:43;21.10;99.90
25949;DHT22;13961;51.178;4.448;2023-09-19T12:29:20;21.20;99.90
25949;DHT22;13961;51.178;4.448;2023-09-19T12:34:23;21.60;99.90
25949;DHT22;13961;51.178;4.448;2023-09-19T12:39:31;21.70;99.90
25949;DHT22;13961;51.178;4.448;2023-09-19T12:41:57;21.70;99.90
25949;DHT22;13961;51.178;4.448;2023-09-19T12:44:24;21.40;99.90
25949;DHT22;13961;51.178;4.448;2023-09-19T12:46:53;21.20;99.90
25949;DHT22;13961;51.178;4.448;2023-09-19T12:49:20;20.90;99.90
25949;DHT22;13961;51.178;4.448;2023-09-19T12:51:49;20.90;99.90
25949;DHT22;13961;51.178;4.448;2023-09-19T12:54:20;21.20;99.90
25949;DHT22;13961;51.178;4.448;2023-09-19T12:56:48;21.40;99.90
25949;DHT22;13961;51.178;4.448;2023-09-19T12:59:15;21.40;99.90
25949;DHT22;13961;51.178;4.448;2023-09-19T13:01:42;21.40;99.90
25949;DHT22;13961;51.178;4.448;2023-09-19T13:04:20;21.60;99.90
25949;DHT22;13961;51.178;4.448;2023-09-19T13:06:54;21.70;99.90
25949;DHT22;13961;51.178;4.448;2023-09-19T13:09:22;21.70;99.90
25949;DHT22;13961;51.178;4.448;2023-09-19T13:11:53;21.70;99.90
25949;DHT22;13961;51.178;4.448;2023-09-19T13:14:29;21.30;99.90
25949;DHT22;13961;51.178;4.448;2023-09-19T13:17:06;21.20;99.90
25949;DHT22;13961;51.178;4.448;2023-09-19T13:19:42;21.40;99.90
25949;DHT22;13961;51.178;4.448;2023-09-19T13:22:42;21.20;99.90
25949;DHT22;13961;51.178;4.448;2023-09-19T13:25:14;21.30;99.90
25949;DHT22;13961;51.178;4.448;2023-09-19T13:27:45;21.50;99.90
25949;DHT22;13961;51.178;4.448;2023-09-19T13:30:12;21.60;99.90
25949;DHT22;13961;51.178;4.448;2023-09-19T13:32:38;21.40;99.90
25949;DHT22;13961;51.178;4.448;2023-09-19T13:35:06;21.60;99.90
25949;DHT22;13961;51.178;4.448;2023-09-19T13:37:34;21.50;99.90
25949;DHT22;13961;51.178;4.448;2023-09-19T13:40:07;21.50;99.90
25949;DHT22;13961;51.178;4.448;2023-09-19T13:42:34;21.70;99.90
25949;DHT22;13961;51.178;4.448;2023-09-19T13:45:00;21.90;99.90
25949;DHT22;13961;51.178;4.448;2023-09-19T13:47:25;21.70;99.90
25949;DHT22;13961;51.178;4.448;2023-09-19T13:49:52;21.60;99.90
25949;DHT22;13961;51.178;4.448;2023-09-19T13:52:21;21.60;99.90
25949;DHT22;13961;51.178;4.448;2023-09-19T13:54:49;21.50;99.90
25949;DHT22;13961;51.178;4.448;2023-09-19T13:57:16;21.70;99.90
25949;DHT22;13961;51.178;4.448;2023-09-19T13:59:42;22.00;99.90
25949;DHT22;13961;51.178;4.448;2023-09-19T14:02:08;21.90;99.90
25949;DHT22;13961;51.178;4.448;2023-09-19T14:04:33;21.90;99.90
25949;DHT22;13961;51.178;4.448;2023-09-19T14:07:02;21.70;99.90
25949;DHT22;13961;51.178;4.448;2023-09-19T14:09:29;21.70;99.90
25949;DHT22;13961;51.178;4.448;2023-09-19T14:11:56;21.80;99.90
25949;DHT22;13961;51.178;4.448;2023-09-19T14:14:22;21.60;99.90
25949;DHT22;13961;51.178;4.448;2023-09-19T14:16:48;21.60;99.90
25949;DHT22;13961;51.178;4.448;2023-09-19T14:19:14;21.90;99.90
25949;DHT22;13961;51.178;4.448;2023-09-19T14:21:42;22.20;99.90
25949;DHT22;13961;51.178;4.448;2023-09-19T14:24:08;22.20;99.90
25949;DHT22;13961;51.178;4.448;2023-09-19T14:26:38;22.20;99.90
25949;DHT22;13961;51.178;4.448;2023-09-19T14:29:05;22.40;99.90
25949;DHT22;13961;51.178;4.448;2023-09-19T14:31:33;22.40;99.90
25949;DHT22;13961;51.178;4.448;2023-09-19T14:33:59;22.30;99.90
25949;DHT22;13961;51.178;4.448;2023-09-19T14:36:25;21.80;99.90
25949;DHT22;13961;51.178;4.448;2023-09-19T14:38:55;21.50;99.90
25949;DHT22;13961;51.178;4.448;2023-09-19T14:41:22;21.40;99.90
25949;DHT22;13961;51.178;4.448;2023-09-19T14:43:49;21.50;99.90
25949;DHT22;13961;51.178;4.448;2023-09-19T14:46:15;21.60;99.90
25949;DHT22;13961;51.178;4.448;2023-09-19T14:48:41;21.50;99.90
25949;DHT22;13961;51.178;4.448;2023-09-19T14:51:08;21.50;99.90
25949;DHT22;13961;51.178;4.448;2023-09-19T14:53:35;21.40;99.90
25949;DHT22;13961;51.178;4.448;2023-09-19T14:56:04;21.50;99.90
25949;DHT22;13961;51.178;4.448;2023-09-19T14:58:33;21.50;99.90
25949;DHT22;13961;51.178;4.448;2023-09-19T15:01:04;21.60;99.90
25949;DHT22;13961;51.178;4.448;2023-09-19T15:03:34;21.50;99.90
25949;DHT22;13961;51.178;4.448;2023-09-19T15:06:02;21.30;99.90
25949;DHT22;13961;51.178;4.448;2023-09-19T15:08:34;21.20;99.90
25949;DHT22;13961;51.178;4.448;2023-09-19T15:11:04;21.20;99.90
25949;DHT22;13961;51.178;4.448;2023-09-19T15:13:31;20.90;99.90
25949;DHT22;13961;51.178;4.448;2023-09-19T15:16:07;20.80;99.90
25949;DHT22;13961;51.178;4.448;2023-09-19T15:18:42;20.80;99.90
25949;DHT22;13961;51.178;4.448;2023-09-19T15:21:09;20.70;99.90
25949;DHT22;13961;51.178;4.448;2023-09-19T15:23:36;20.70;99.90
25949;DHT22;13961;51.178;4.448;2023-09-19T15:26:05;20.70;99.90
25949;DHT22;13961;51.178;4.448;2023-09-19T15:28:32;20.60;99.90
25949;DHT22;13961;51.178;4.448;2023-09-19T15:31:09;20.50;99.90
25949;DHT22;13961;51.178;4.448;2023-09-19T15:33:36;20.50;99.90
25949;DHT22;13961;51.178;4.448;2023-09-19T15:36:13;20.50;99.90
25949;DHT22;13961;51.178;4.448;2023-09-19T15:41:29;20.80;99.90
25949;DHT22;13961;51.178;4.448;2023-09-19T15:43:56;20.90;99.90
25949;DHT22;13961;51.178;4.448;2023-09-19T15:46:23;21.00;99.90
25949;DHT22;13961;51.178;4.448;2023-09-19T15:48:48;21.10;99.90
25949;DHT22;13961;51.178;4.448;2023-09-19T15:51:15;21.00;99.90
25949;DHT22;13961;51.178;4.448;2023-09-19T15:53:49;20.80;99.90
25949;DHT22;13961;51.178;4.448;2023-09-19T15:56:16;20.70;99.90
25949;DHT22;13961;51.178;4.448;2023-09-19T15:58:47;20.60;99.90
25949;DHT22;13961;51.178;4.448;2023-09-19T16:01:13;20.60;99.90
25949;DHT22;13961;51.178;4.448;2023-09-19T16:03:42;20.60;99.90
25949;DHT22;13961;51.178;4.448;2023-09-19T16:06:12;20.60;99.90
25949;DHT22;13961;51.178;4.448;2023-09-19T16:08:43;20.70;99.90
25949;DHT22;13961;51.178;4.448;2023-09-19T16:11:09;20.50;99.90
25949;DHT22;13961;51.178;4.448;2023-09-19T16:13:37;20.30;99.90
25949;DHT22;13961;51.178;4.448;2023-09-19T16:16:04;20.30;99.90
25949;DHT22;13961;51.178;4.448;2023-09-19T16:18:30;20.30;99.90
25949;DHT22;13961;51.178;4.448;2023-09-19T16:21:03;20.40;99.90
25949;DHT22;13961;51.178;4.448;2023-09-19T16:23:29;20.30;99.90
25949;DHT22;13961;51.178;4.448;2023-09-19T16:26:16;20.20;99.90
25949;DHT22;13961;51.178;4.448;2023-09-19T16:28:44;20.30;99.90